createdAt,value
2023-01-29T00:01:35.298Z,92.55
2023-01-29T00:04:04.573Z,92.74
2023-01-29T00:06:33.674Z,93.12
2023-01-29T00:09:02.549Z,93.06
2023-01-29T00:11:33.492Z,92.88
2023-01-29T00:14:02.393Z,93.35
2023-01-29T00:16:31.070Z,93.15
2023-01-29T00:19:02.202Z,93.25
2023-01-29T00:21:31.493Z,93.42
2023-01-29T00:24:00.570Z,93.48
2023-01-29T00:26:29.699Z,93.40
2023-01-29T00:28:58.291Z,93.30
2023-01-29T00:31:27.541Z,93.52
2023-01-29T00:33:56.305Z,93.28
2023-01-29T00:36:26.394Z,93.13
2023-01-29T00:38:59.566Z,93.30
2023-01-29T00:41:51.235Z,93.01
2023-01-29T00:44:38.593Z,92.55
2023-01-29T00:47:26.676Z,92.67
2023-01-29T00:49:55.942Z,92.65
2023-01-29T00:52:24.961Z,92.87
2023-01-29T00:54:55.169Z,92.61
2023-01-29T00:57:25.088Z,92.60
2023-01-29T00:59:55.125Z,93.12
2023-01-29T01:02:43.024Z,93.18
2023-01-29T01:05:18.431Z,93.18
2023-01-29T01:07:49.197Z,93.61
2023-01-29T01:10:26.821Z,93.88
2023-01-29T01:13:04.425Z,93.84
2023-01-29T01:15:37.331Z,93.83
2023-01-29T01:18:06.484Z,94.04
2023-01-29T01:20:36.443Z,94.47
2023-01-29T01:23:05.490Z,93.79
2023-01-29T01:25:34.593Z,93.90
2023-01-29T01:28:03.084Z,94.26
2023-01-29T01:30:33.313Z,94.16
2023-01-29T01:33:02.691Z,93.83
2023-01-29T01:35:32.513Z,93.32
2023-01-29T01:38:02.095Z,93.43
2023-01-29T01:40:31.871Z,93.80
2023-01-29T01:43:02.124Z,93.12
2023-01-29T01:45:36.389Z,93.22
2023-01-29T01:48:13.339Z,93.31
2023-01-29T01:51:03.733Z,92.31
2023-01-29T01:53:39.451Z,92.42
2023-01-29T01:56:17.391Z,92.84
2023-01-29T01:58:50.789Z,92.90
2023-01-29T02:01:23.277Z,93.22
2023-01-29T02:04:20.907Z,93.50
2023-01-29T02:07:08.744Z,93.35
2023-01-29T02:09:43.388Z,93.44
2023-01-29T02:12:13.708Z,94.02
2023-01-29T02:14:43.208Z,94.26
2023-01-29T02:17:14.203Z,93.92
2023-01-29T02:20:02.175Z,94.12
2023-01-29T02:22:55.870Z,93.64
2023-01-29T02:25:44.409Z,94.02
2023-01-29T02:28:21.692Z,93.48
2023-01-29T02:31:02.989Z,93.18
2023-01-29T02:33:40.241Z,93.07
2023-01-29T02:36:36.697Z,92.80
2023-01-29T02:39:38.643Z,93.09
2023-01-29T02:42:18.726Z,92.92
2023-01-29T02:44:52.606Z,92.85
2023-01-29T02:47:31.221Z,92.92
2023-01-29T02:50:20.739Z,92.79
2023-01-29T02:53:00.468Z,92.53
2023-01-29T02:55:36.560Z,92.59
2023-01-29T02:58:40.136Z,92.12
2023-01-29T03:01:13.795Z,91.91
2023-01-29T03:03:45.635Z,91.57
2023-01-29T03:06:33.307Z,91.63
2023-01-29T03:09:06.063Z,91.22
2023-01-29T03:11:41.834Z,91.44
2023-01-29T03:14:17.525Z,91.51
2023-01-29T03:16:51.510Z,91.38
2023-01-29T03:19:32.129Z,90.85
2023-01-29T03:22:04.592Z,90.95
2023-01-29T03:24:58.722Z,91.10
2023-01-29T03:27:49.816Z,91.07
2023-01-29T03:30:38.902Z,90.59
2023-01-29T03:33:24.783Z,90.47
2023-01-29T03:36:04.718Z,90.81
2023-01-29T03:38:33.617Z,90.55
2023-01-29T03:41:35.371Z,90.74
2023-01-29T03:44:18.805Z,89.82
2023-01-29T03:46:56.944Z,90.34
2023-01-29T03:49:40.862Z,90.10
2023-01-29T03:52:24.170Z,89.91
2023-01-29T03:55:07.197Z,89.79
2023-01-29T03:57:54.745Z,89.56
2023-01-29T04:00:43.804Z,89.52
2023-01-29T04:03:29.679Z,88.90
2023-01-29T04:06:05.959Z,88.51
2023-01-29T04:08:45.199Z,87.64
2023-01-29T04:11:16.724Z,87.99
2023-01-29T04:13:46.466Z,87.44
2023-01-29T04:16:39.639Z,87.16
2023-01-29T04:19:24.504Z,87.54
2023-01-29T04:22:11.185Z,87.91
2023-01-29T04:24:40.078Z,87.89
2023-01-29T04:27:27.799Z,87.40
2023-01-29T04:30:22.071Z,87.16
2023-01-29T04:33:09.422Z,87.42
2023-01-29T04:35:38.182Z,86.73
2023-01-29T04:38:17.019Z,87.09
2023-01-29T04:40:48.476Z,86.62
2023-01-29T04:43:40.534Z,86.30
2023-01-29T04:46:19.677Z,87.03
2023-01-29T04:49:10.043Z,86.97
2023-01-29T04:51:58.979Z,86.87
2023-01-29T04:54:46.291Z,86.31
2023-01-29T04:57:30.034Z,86.42
2023-01-29T05:00:37.956Z,86.75
2023-01-29T05:03:09.998Z,86.35
2023-01-29T05:05:42.730Z,85.98
2023-01-29T05:08:13.756Z,85.36
2023-01-29T05:10:42.950Z,85.66
2023-01-29T05:13:14.097Z,85.90
2023-01-29T05:15:48.523Z,85.82
2023-01-29T05:18:17.282Z,85.94
2023-01-29T05:20:46.162Z,85.74
2023-01-29T05:23:22.242Z,86.22
2023-01-29T05:25:52.373Z,86.08
2023-01-29T05:28:20.816Z,85.84
2023-01-29T05:30:53.038Z,86.70
2023-01-29T05:33:26.492Z,87.14
2023-01-29T05:35:55.902Z,87.25
2023-01-29T05:38:24.683Z,86.83
2023-01-29T05:40:53.284Z,87.39
2023-01-29T05:43:24.149Z,86.79
2023-01-29T05:45:54.731Z,87.59
2023-01-29T05:48:23.419Z,87.11
2023-01-29T05:50:52.222Z,86.66
2023-01-29T05:53:21.308Z,86.57
2023-01-29T05:55:50.179Z,86.43
2023-01-29T05:58:20.197Z,86.32
2023-01-29T06:00:48.787Z,87.06
2023-01-29T06:03:17.400Z,87.56
2023-01-29T06:05:46.264Z,87.20
2023-01-29T06:08:15.860Z,87.02
2023-01-29T06:10:44.444Z,86.58
2023-01-29T06:13:13.243Z,86.76
2023-01-29T06:15:43.064Z,86.82
2023-01-29T06:18:11.758Z,87.05
2023-01-29T06:20:40.411Z,86.74
2023-01-29T06:23:09.023Z,86.72
2023-01-29T06:25:37.807Z,86.73
2023-01-29T06:28:06.816Z,87.15
2023-01-29T06:30:35.644Z,86.98
2023-01-29T06:33:04.250Z,86.88
2023-01-29T06:35:32.963Z,86.92
2023-01-29T06:38:01.824Z,87.41
2023-01-29T06:40:30.613Z,87.39
2023-01-29T06:43:01.763Z,87.79
2023-01-29T06:45:30.410Z,87.60
2023-01-29T06:48:01.313Z,87.29
2023-01-29T06:50:30.276Z,87.53
2023-01-29T06:52:59.613Z,86.96
2023-01-29T06:55:28.156Z,86.71
2023-01-29T06:57:57.988Z,86.63
2023-01-29T07:00:28.682Z,86.19
2023-01-29T07:02:58.632Z,86.72
2023-01-29T07:05:28.043Z,86.63
2023-01-29T07:07:56.723Z,87.04
2023-01-29T07:10:25.593Z,86.59
2023-01-29T07:12:54.274Z,86.16
2023-01-29T07:15:22.765Z,86.33
2023-01-29T07:18:02.609Z,86.11
2023-01-29T07:20:32.020Z,85.95
2023-01-29T07:23:00.588Z,85.62
2023-01-29T07:25:30.715Z,85.77
2023-01-29T07:28:01.652Z,85.75
2023-01-29T07:30:30.544Z,86.22
2023-01-29T07:33:05.202Z,85.54
2023-01-29T07:35:43.236Z,85.83
2023-01-29T07:38:12.384Z,85.44
2023-01-29T07:40:41.163Z,85.19
2023-01-29T07:43:10.263Z,85.00
2023-01-29T07:45:40.686Z,85.68
2023-01-29T07:48:12.571Z,84.52
2023-01-29T07:50:41.838Z,83.99
2023-01-29T07:53:15.392Z,84.40
2023-01-29T07:55:47.187Z,83.96
2023-01-29T07:58:16.084Z,83.50
2023-01-29T08:00:45.588Z,83.77
2023-01-29T08:03:16.993Z,83.66
2023-01-29T08:05:46.227Z,83.62
2023-01-29T08:08:15.532Z,84.47
2023-01-29T08:10:44.537Z,84.12
2023-01-29T08:13:13.417Z,84.95
2023-01-29T08:15:46.287Z,83.93
2023-01-29T08:18:15.737Z,84.15
2023-01-29T08:20:44.501Z,83.66
2023-01-29T08:23:15.167Z,84.32
2023-01-29T08:25:43.965Z,84.00
2023-01-29T08:28:13.019Z,83.70
2023-01-29T08:30:42.227Z,83.67
2023-01-29T08:33:10.977Z,83.91
2023-01-29T08:35:41.626Z,83.82
2023-01-29T08:38:11.255Z,84.19
2023-01-29T08:40:40.947Z,83.88
2023-01-29T08:43:12.080Z,83.55
2023-01-29T08:45:42.972Z,83.17
2023-01-29T08:48:13.250Z,83.50
2023-01-29T08:50:41.726Z,83.01
2023-01-29T08:53:10.782Z,82.81
2023-01-29T08:55:40.437Z,82.48
2023-01-29T08:58:11.400Z,82.15
2023-01-29T09:00:39.868Z,82.36
2023-01-29T09:03:08.500Z,82.34
2023-01-29T09:05:41.385Z,81.89
2023-01-29T09:08:10.597Z,82.30
2023-01-29T09:10:39.077Z,82.28
2023-01-29T09:13:07.870Z,81.59
2023-01-29T09:15:36.456Z,82.34
2023-01-29T09:18:06.088Z,81.77
2023-01-29T09:20:34.853Z,81.70
2023-01-29T09:23:10.579Z,82.12
2023-01-29T09:25:39.093Z,82.24
2023-01-29T09:28:07.869Z,81.85
2023-01-29T09:30:38.561Z,82.71
2023-01-29T09:33:07.889Z,82.06
2023-01-29T09:35:36.599Z,82.08
2023-01-29T09:38:05.699Z,82.59
2023-01-29T09:40:34.586Z,82.40
2023-01-29T09:43:37.601Z,82.22
2023-01-29T09:46:15.539Z,81.75
2023-01-29T09:48:44.668Z,81.99
2023-01-29T09:51:28.279Z,82.34
2023-01-29T09:54:06.525Z,81.91
2023-01-29T09:56:35.801Z,81.83
2023-01-29T09:59:04.489Z,81.49
2023-01-29T10:01:48.789Z,81.81
2023-01-29T10:04:41.961Z,81.49
2023-01-29T10:07:23.890Z,81.38
2023-01-29T10:10:14.100Z,81.08
2023-01-29T10:13:21.596Z,80.95
2023-01-29T10:16:02.677Z,81.26
2023-01-29T10:19:13.123Z,81.73
2023-01-29T10:21:47.644Z,81.45
2023-01-29T10:24:25.048Z,81.34
2023-01-29T10:26:54.126Z,81.39
2023-01-29T10:29:23.829Z,80.81
2023-01-29T10:32:06.232Z,81.36
2023-01-29T10:34:41.185Z,81.87
2023-01-29T10:37:18.746Z,81.83
2023-01-29T10:39:47.459Z,82.21
2023-01-29T10:42:40.424Z,82.66
2023-01-29T10:45:35.525Z,82.40
2023-01-29T10:48:40.470Z,82.43
2023-01-29T10:51:19.263Z,82.47
2023-01-29T10:53:50.818Z,82.87
2023-01-29T10:56:35.710Z,83.33
2023-01-29T10:59:10.034Z,83.12
2023-01-29T11:01:39.460Z,82.62
2023-01-29T11:04:12.390Z,82.40
2023-01-29T11:06:41.068Z,82.65
2023-01-29T11:09:19.380Z,83.07
2023-01-29T11:11:54.772Z,81.65
2023-01-29T11:14:34.261Z,81.67
2023-01-29T11:17:03.177Z,82.20
2023-01-29T11:19:41.958Z,82.20
2023-01-29T11:22:20.244Z,82.18
2023-01-29T11:25:08.533Z,82.31
2023-01-29T11:27:47.255Z,82.15
2023-01-29T11:30:30.908Z,81.83
2023-01-29T11:33:19.049Z,81.21
2023-01-29T11:35:48.070Z,80.92
2023-01-29T11:38:16.720Z,80.78
2023-01-29T11:40:46.219Z,80.89
2023-01-29T11:43:20.970Z,81.61
2023-01-29T11:45:55.466Z,81.43
2023-01-29T11:48:41.066Z,81.08
2023-01-29T11:51:12.848Z,81.48
2023-01-29T11:53:44.107Z,80.70
2023-01-29T11:56:52.160Z,81.28
2023-01-29T11:59:30.579Z,81.42
2023-01-29T12:02:21.680Z,81.23
2023-01-29T12:04:52.098Z,81.21
2023-01-29T12:07:21.329Z,80.86
2023-01-29T12:09:54.613Z,81.06
2023-01-29T12:12:32.108Z,81.07
2023-01-29T12:15:17.586Z,81.02
2023-01-29T12:17:58.641Z,81.20
2023-01-29T12:20:32.240Z,81.14
2023-01-29T12:23:25.733Z,81.90
2023-01-29T12:26:08.706Z,82.20
2023-01-29T12:28:52.477Z,82.02
2023-01-29T12:31:30.126Z,82.24
2023-01-29T12:34:06.946Z,82.39
2023-01-29T12:36:38.196Z,82.64
2023-01-29T12:39:11.950Z,82.35
2023-01-29T12:41:46.242Z,82.68
2023-01-29T12:44:21.966Z,82.74
2023-01-29T12:46:55.359Z,82.82
2023-01-29T12:49:28.605Z,83.53
2023-01-29T12:52:37.785Z,83.40
2023-01-29T12:55:17.266Z,82.30
2023-01-29T12:57:59.131Z,81.86
2023-01-29T13:00:49.363Z,81.97
2023-01-29T13:03:30.317Z,82.47
2023-01-29T13:06:12.729Z,82.66
2023-01-29T13:08:52.221Z,82.82
2023-01-29T13:11:28.654Z,83.60
2023-01-29T13:14:02.466Z,83.94
2023-01-29T13:16:38.565Z,83.88
2023-01-29T13:19:20.563Z,84.16
2023-01-29T13:21:50.371Z,84.88
2023-01-29T13:24:24.076Z,85.15
2023-01-29T13:26:53.787Z,84.82
2023-01-29T13:29:29.040Z,84.83
2023-01-29T13:32:03.875Z,85.40
2023-01-29T13:34:36.808Z,85.99
2023-01-29T13:37:13.880Z,85.43
2023-01-29T13:39:49.834Z,85.77
2023-01-29T13:42:25.626Z,85.60
2023-01-29T13:44:58.995Z,85.95
2023-01-29T13:47:38.817Z,85.75
2023-01-29T13:50:10.640Z,85.68
2023-01-29T13:52:45.975Z,85.61
2023-01-29T13:55:18.754Z,85.78
2023-01-29T13:57:47.750Z,86.04
2023-01-29T14:00:31.889Z,85.82
2023-01-29T14:03:00.827Z,85.90
2023-01-29T14:05:30.221Z,85.96
2023-01-29T14:08:00.592Z,86.26
2023-01-29T14:10:38.309Z,86.57
2023-01-29T14:13:19.509Z,86.60
2023-01-29T14:15:58.290Z,86.17
2023-01-29T14:18:32.848Z,86.05
2023-01-29T14:21:32.937Z,86.69
2023-01-29T14:24:22.735Z,86.56
2023-01-29T14:26:56.146Z,86.73
2023-01-29T14:29:34.662Z,87.07
2023-01-29T14:32:07.976Z,87.02
2023-01-29T14:34:45.600Z,86.80
2023-01-29T14:37:18.212Z,87.23
2023-01-29T14:39:58.056Z,87.06
2023-01-29T14:42:36.681Z,87.26
2023-01-29T14:45:27.379Z,87.71
2023-01-29T14:48:05.616Z,87.99
2023-01-29T14:50:35.291Z,87.40
2023-01-29T14:53:11.983Z,88.04
2023-01-29T14:55:46.390Z,88.10
2023-01-29T14:58:20.633Z,87.99
2023-01-29T15:00:53.451Z,87.93
2023-01-29T15:03:46.101Z,88.00
2023-01-29T15:06:20.456Z,88.34
2023-01-29T15:08:55.952Z,88.62
2023-01-29T15:11:38.421Z,88.35
2023-01-29T15:14:11.831Z,88.67
2023-01-29T15:16:57.398Z,88.33
2023-01-29T15:19:35.687Z,88.62
2023-01-29T15:22:06.575Z,89.23
2023-01-29T15:24:38.640Z,89.77
2023-01-29T15:27:13.732Z,89.94
2023-01-29T15:29:45.184Z,90.23
2023-01-29T15:32:28.291Z,90.37
2023-01-29T15:34:58.404Z,90.49
2023-01-29T15:37:33.224Z,90.61
2023-01-29T15:40:03.842Z,90.74
2023-01-29T15:42:48.961Z,90.90
2023-01-29T15:45:34.554Z,90.93
2023-01-29T15:48:12.395Z,91.07
2023-01-29T15:50:42.753Z,90.92
2023-01-29T15:53:20.334Z,90.86
2023-01-29T15:55:51.960Z,90.75
2023-01-29T15:58:32.820Z,90.74
2023-01-29T16:01:02.895Z,90.99
2023-01-29T16:03:35.131Z,90.94
2023-01-29T16:06:07.543Z,90.75
2023-01-29T16:08:40.391Z,90.65
2023-01-29T16:11:10.539Z,90.19
2023-01-29T16:13:46.181Z,90.52
2023-01-29T16:16:16.332Z,90.39
2023-01-29T16:18:59.492Z,90.66
2023-01-29T16:21:34.554Z,90.56
2023-01-29T16:24:09.954Z,90.59
2023-01-29T16:26:44.789Z,90.87
2023-01-29T16:29:20.141Z,91.04
2023-01-29T16:31:53.232Z,90.88
2023-01-29T16:34:32.851Z,90.97
2023-01-29T16:37:06.357Z,91.08
2023-01-29T16:39:46.653Z,91.29
2023-01-29T16:42:20.827Z,91.57
2023-01-29T16:44:56.732Z,91.83
2023-01-29T16:47:30.312Z,91.88
2023-01-29T16:50:20.249Z,92.10
2023-01-29T16:52:58.464Z,92.43
2023-01-29T16:55:34.473Z,92.95
2023-01-29T16:58:10.155Z,92.83
2023-01-29T17:00:45.713Z,93.14
2023-01-29T17:03:18.012Z,92.95
2023-01-29T17:05:52.061Z,93.20
2023-01-29T17:08:36.314Z,93.52
2023-01-29T17:11:10.074Z,93.60
2023-01-29T17:13:46.173Z,93.52
2023-01-29T17:16:53.019Z,93.27
2023-01-29T17:19:26.457Z,93.59
2023-01-29T17:22:01.795Z,93.73
2023-01-29T17:24:33.024Z,93.83
2023-01-29T17:27:05.245Z,93.93
2023-01-29T17:29:36.768Z,94.18
2023-01-29T17:32:07.992Z,94.53
2023-01-29T17:34:38.201Z,94.63
2023-01-29T17:37:17.214Z,95.00
2023-01-29T17:39:53.795Z,95.16
2023-01-29T17:42:24.661Z,95.43
2023-01-29T17:44:57.534Z,95.56
2023-01-29T17:47:28.568Z,95.75
2023-01-29T17:49:59.090Z,95.73
2023-01-29T17:52:29.786Z,96.22
2023-01-29T17:55:04.424Z,96.71
2023-01-29T17:57:36.008Z,96.64
2023-01-29T18:00:27.839Z,97.52
2023-01-29T18:03:03.333Z,98.00
2023-01-29T18:05:35.004Z,98.17
2023-01-29T18:08:08.346Z,98.14
2023-01-29T18:10:39.565Z,98.21
2023-01-29T18:13:13.533Z,97.98
2023-01-29T18:15:43.605Z,97.57
2023-01-29T18:18:17.474Z,97.38
2023-01-29T18:20:50.398Z,97.47
2023-01-29T18:23:22.513Z,97.17
2023-01-29T18:26:00.033Z,96.80
2023-01-29T18:28:33.346Z,96.69
2023-01-29T18:31:09.015Z,96.72
2023-01-29T18:33:40.639Z,96.55
2023-01-29T18:36:13.123Z,96.16
2023-01-29T18:38:44.814Z,96.17
2023-01-29T18:41:15.707Z,96.19
2023-01-29T18:43:48.927Z,95.91
2023-01-29T18:46:27.097Z,96.08
2023-01-29T18:49:01.852Z,95.86
2023-01-29T18:51:34.360Z,95.59
2023-01-29T18:54:07.392Z,95.59
2023-01-29T18:56:38.987Z,95.64
2023-01-29T18:59:29.924Z,95.53
2023-01-29T19:02:00.981Z,95.43
2023-01-29T19:04:32.390Z,95.48
2023-01-29T19:07:02.774Z,95.14
2023-01-29T19:09:34.388Z,94.92
2023-01-29T19:12:08.361Z,94.85
2023-01-29T19:14:41.951Z,94.94
2023-01-29T19:17:13.277Z,94.58
2023-01-29T19:19:44.229Z,94.19
2023-01-29T19:22:19.038Z,94.19
2023-01-29T19:24:53.368Z,94.32
2023-01-29T19:27:24.440Z,94.54
2023-01-29T19:29:57.613Z,94.48
2023-01-29T19:32:31.527Z,94.58
2023-01-29T19:35:01.605Z,95.01
2023-01-29T19:37:34.849Z,95.51
2023-01-29T19:40:06.482Z,95.62
2023-01-29T19:42:38.694Z,95.53
2023-01-29T19:45:09.559Z,95.45
2023-01-29T19:47:46.915Z,95.34
2023-01-29T19:50:18.580Z,95.57
2023-01-29T19:52:51.667Z,95.33
2023-01-29T19:55:25.315Z,95.63
2023-01-29T19:57:59.960Z,94.80
2023-01-29T20:00:34.314Z,95.11
2023-01-29T20:03:07.201Z,94.88
2023-01-29T20:05:38.811Z,94.50
2023-01-29T20:08:09.276Z,94.30
2023-01-29T20:10:40.302Z,94.28
2023-01-29T20:13:11.416Z,94.61
2023-01-29T20:15:49.405Z,95.21
2023-01-29T20:18:20.942Z,94.59
2023-01-29T20:20:53.967Z,94.09
2023-01-29T20:23:37.310Z,93.68
2023-01-29T20:26:10.843Z,93.81
2023-01-29T20:28:42.358Z,94.38
2023-01-29T20:31:12.821Z,94.58
2023-01-29T20:33:46.672Z,94.61
2023-01-29T20:36:17.300Z,94.69
2023-01-29T20:38:58.674Z,94.79
2023-01-29T20:41:31.369Z,94.24
2023-01-29T20:44:02.184Z,94.13
2023-01-29T20:46:35.505Z,93.72
2023-01-29T20:49:08.102Z,93.11
2023-01-29T20:51:40.579Z,93.04
2023-01-29T20:54:13.527Z,93.05
2023-01-29T20:56:46.163Z,92.63
2023-01-29T20:59:21.010Z,93.13
2023-01-29T21:01:52.443Z,92.82
2023-01-29T21:04:22.819Z,92.08
2023-01-29T21:06:52.736Z,92.24
2023-01-29T21:09:24.396Z,92.23
2023-01-29T21:11:55.704Z,92.38
2023-01-29T21:14:25.645Z,92.21
2023-01-29T21:16:58.234Z,92.04
2023-01-29T21:19:31.269Z,91.73
2023-01-29T21:22:01.327Z,91.26
2023-01-29T21:24:31.529Z,91.37
2023-01-29T21:27:02.040Z,91.16
2023-01-29T21:29:31.896Z,91.25
2023-01-29T21:32:02.337Z,91.01
2023-01-29T21:34:35.977Z,91.14
2023-01-29T21:37:06.133Z,90.37
2023-01-29T21:39:35.628Z,90.42
2023-01-29T21:42:23.901Z,90.49
2023-01-29T21:44:53.269Z,90.79
2023-01-29T21:47:22.686Z,90.79
2023-01-29T21:49:57.503Z,91.39
2023-01-29T21:52:27.531Z,91.40
2023-01-29T21:54:57.250Z,90.95
2023-01-29T21:57:27.348Z,91.08
2023-01-29T21:59:58.122Z,91.06
2023-01-29T22:02:28.546Z,91.35
2023-01-29T22:05:17.607Z,91.59
2023-01-29T22:07:48.643Z,91.38
2023-01-29T22:10:18.841Z,90.90
2023-01-29T22:12:48.459Z,91.47
2023-01-29T22:15:17.348Z,91.33
2023-01-29T22:17:45.940Z,91.43
2023-01-29T22:20:16.233Z,91.54
2023-01-29T22:22:45.631Z,91.94
2023-01-29T22:25:20.278Z,91.51
2023-01-29T22:27:48.945Z,91.66
2023-01-29T22:30:18.297Z,91.54
2023-01-29T22:32:47.039Z,92.03
2023-01-29T22:35:16.022Z,91.74
2023-01-29T22:37:45.533Z,92.39
2023-01-29T22:40:14.538Z,91.98
2023-01-29T22:42:43.231Z,91.80
2023-01-29T22:45:12.402Z,91.85
2023-01-29T22:47:41.111Z,91.64
2023-01-29T22:50:10.750Z,92.08
2023-01-29T22:52:39.712Z,91.62
2023-01-29T22:55:10.972Z,91.03
2023-01-29T22:57:40.450Z,91.24
2023-01-29T23:00:11.372Z,91.22
2023-01-29T23:02:40.175Z,90.91
2023-01-29T23:05:09.272Z,90.31
2023-01-29T23:07:38.178Z,90.94
2023-01-29T23:10:07.655Z,90.37
2023-01-29T23:12:36.352Z,90.79
2023-01-29T23:15:06.613Z,91.01
2023-01-29T23:17:35.340Z,90.96
2023-01-29T23:20:04.350Z,91.10
2023-01-29T23:22:32.921Z,90.67
2023-01-29T23:25:03.047Z,91.01
2023-01-29T23:27:31.733Z,90.52
2023-01-29T23:30:00.539Z,90.77
2023-01-29T23:32:29.421Z,90.83
2023-01-29T23:34:59.635Z,90.49
2023-01-29T23:37:28.428Z,90.57
2023-01-29T23:39:57.100Z,90.52
2023-01-29T23:42:25.811Z,91.16
2023-01-29T23:44:54.577Z,91.66
2023-01-29T23:47:23.169Z,91.41
2023-01-29T23:49:53.314Z,91.87
2023-01-29T23:52:22.896Z,91.90
2023-01-29T23:54:51.361Z,92.09
2023-01-29T23:57:21.480Z,92.26
2023-01-29T23:59:50.005Z,92.11
